Time;durP1;ratioP1;P1;durP2;ratioP2;P2;SDS_P1;SDS_P2;PMS_P1;PMS_P2;Temp;Humidity;BMP_temperature;BMP_pressure;BME280_temperature;BME280_humidity;BME280_pressure;Samples;Min_cycle;Max_cycle;Signal;HPM_P1;HPM_P2
2021/04/17 00:01:46;;;;;;;6.60;5.30;;;;;;;-139.48;100.00;61774.03;5072954;28;20044;-70
2021/04/17 00:04:30;;;;;;;8.18;5.90;;;;;;;-139.48;100.00;61774.03;5073195;28;20127;-70
2021/04/17 00:07:16;;;;;;;6.75;5.78;;;;;;;-139.48;100.00;61774.03;5074203;28;20044;-70
2021/04/17 00:10:00;;;;;;;9.77;6.20;;;;;;;-139.48;100.00;61774.03;5073989;28;20063;-70
2021/04/17 00:12:44;;;;;;;9.60;6.53;;;;;;;-139.48;100.00;61774.03;5054872;22;20061;-65
2021/04/17 00:15:28;;;;;;;9.40;7.35;;;;;;;-139.48;100.00;61774.03;5019166;28;20056;-65
2021/04/17 00:18:14;;;;;;;10.85;6.88;;;;;;;-139.48;100.00;61774.03;5019104;28;20075;-65
2021/04/17 00:20:59;;;;;;;7.70;5.78;;;;;;;-139.48;100.00;61774.03;5019520;28;20504;-65
2021/04/17 00:23:42;;;;;;;9.02;5.88;;;;;;;-139.48;100.00;61774.03;5018989;28;20067;-65
2021/04/17 00:26:27;;;;;;;9.30;6.18;;;;;;;-139.48;100.00;61774.03;5033825;28;20072;-66
2021/04/17 00:29:10;;;;;;;8.95;5.93;;;;;;;-139.48;100.00;61774.03;5005045;28;20048;-66
2021/04/17 00:31:54;;;;;;;8.38;5.85;;;;;;;-139.48;100.00;61774.03;5019112;28;20044;-64
2021/04/17 00:34:38;;;;;;;6.82;5.63;;;;;;;-139.48;100.00;61774.03;5033450;28;20052;-66
2021/04/17 00:37:22;;;;;;;10.13;6.80;;;;;;;-139.48;100.00;61774.03;5018834;28;20477;-64
2021/04/17 00:40:07;;;;;;;8.48;6.45;;;;;;;-139.48;100.00;61774.03;5033740;28;20103;-66
2021/04/17 00:42:50;;;;;;;7.35;5.32;;;;;;;-139.48;100.00;61774.03;5018397;28;20068;-66
2021/04/17 00:45:34;;;;;;;7.55;5.90;;;;;;;-139.48;100.00;61774.03;5004872;28;20060;-66
2021/04/17 00:48:18;;;;;;;7.43;5.38;;;;;;;-139.48;100.00;61774.03;5004801;28;20107;-66
2021/04/17 00:51:02;;;;;;;6.57;5.38;;;;;;;-139.48;100.00;61774.03;5004665;28;20124;-66
2021/04/17 00:53:46;;;;;;;11.82;6.60;;;;;;;-139.48;100.00;61774.03;5018776;28;20071;-65
2021/04/17 00:56:30;;;;;;;8.45;6.50;;;;;;;-139.48;100.00;61774.03;5033530;28;20048;-66
2021/04/17 00:59:14;;;;;;;9.05;6.63;;;;;;;-139.48;100.00;61774.03;5033644;28;20179;-66
2021/04/17 01:01:58;;;;;;;8.13;6.22;;;;;;;-139.48;100.00;61774.03;5017961;28;20082;-66
2021/04/17 01:04:43;;;;;;;7.78;6.50;;;;;;;-139.48;100.00;61774.03;5018697;28;20561;-65
2021/04/17 01:07:42;;;;;;;6.95;5.78;;;;;;;-139.48;100.00;61774.03;5018189;28;20107;-65
2021/04/17 01:10:39;;;;;;;6.78;5.55;;;;;;;-139.48;100.00;61774.03;5018450;28;20048;-65
2021/04/17 01:13:23;;;;;;;7.18;5.13;;;;;;;-139.48;100.00;61774.03;5004439;28;20552;-65
2021/04/17 01:16:06;;;;;;;;;;;;;;;-139.48;100.00;61774.03;5018641;28;20049;-66
2021/04/17 01:18:52;;;;;;;7.95;5.78;;;;;;;-139.48;100.00;61774.03;5018616;28;20059;-64
2021/04/17 01:21:38;;;;;;;8.93;5.57;;;;;;;-139.48;100.00;61774.03;5018402;28;20045;-66
2021/04/17 01:24:25;;;;;;;7.82;5.63;;;;;;;-139.48;100.00;61774.03;5018041;28;20099;-65
2021/04/17 01:27:09;;;;;;;11.05;5.97;;;;;;;-139.48;100.00;61774.03;5004339;28;20176;-64
2021/04/17 01:29:53;;;;;;;;;;;;;;;-139.48;100.00;61774.03;5033628;28;20052;-65
2021/04/17 01:32:37;;;;;;;6.32;4.72;;;;;;;-139.48;100.00;61774.03;5018086;28;19920;-64
2021/04/17 01:35:21;;;;;;;5.88;5.07;;;;;;;-139.48;100.00;61774.03;5004236;28;20460;-65
2021/04/17 01:38:19;;;;;;;7.40;5.03;;;;;;;-139.48;100.00;61774.03;5004353;28;20060;-65
2021/04/17 01:41:37;;;;;;;7.07;5.45;;;;;;;-139.48;100.00;61774.03;5018088;28;20056;-65
2021/04/17 01:44:30;;;;;;;6.53;5.15;;;;;;;-139.48;100.00;61774.03;5028692;28;20049;-66
2021/04/17 01:47:15;;;;;;;8.00;5.38;;;;;;;-139.48;100.00;61774.03;5033010;28;20044;-65
2021/04/17 01:49:59;;;;;;;6.30;5.32;;;;;;;-139.48;100.00;61774.03;5018248;28;20080;-66
2021/04/17 01:52:44;;;;;;;7.88;4.82;;;;;;;-139.48;100.00;61774.03;5018209;28;20477;-66
2021/04/17 01:55:33;;;;;;;6.75;5.00;;;;;;;-139.48;100.00;61774.03;5017997;28;20119;-64
2021/04/17 01:58:24;;;;;;;6.72;5.25;;;;;;;-139.48;100.00;61774.03;5017777;28;20099;-64
2021/04/17 02:01:08;;;;;;;7.47;5.80;;;;;;;-139.48;100.00;61774.03;5018184;28;20170;-65
2021/04/17 02:03:52;;;;;;;10.25;5.22;;;;;;;-139.48;100.00;61774.03;5032591;28;20052;-65
2021/04/17 02:06:36;;;;;;;7.40;5.28;;;;;;;-139.48;100.00;61774.03;5003821;28;20068;-64
2021/04/17 02:09:20;;;;;;;6.32;4.88;;;;;;;-139.48;100.00;61774.03;5017615;28;20098;-65
2021/04/17 02:12:04;;;;;;;7.38;5.30;;;;;;;-139.48;100.00;61774.03;5032772;28;20048;-65
2021/04/17 02:14:48;;;;;;;6.72;5.28;;;;;;;-139.48;100.00;61774.03;5020342;28;20410;-65
2021/04/17 02:17:44;;;;;;;7.32;5.38;;;;;;;-139.48;100.00;61774.03;5021351;28;20080;-65
2021/04/17 02:20:41;;;;;;;9.10;5.00;;;;;;;-139.48;100.00;61774.03;5021322;28;20088;-66
2021/04/17 02:23:25;;;;;;;6.85;4.70;;;;;;;-139.48;100.00;61774.03;5036443;28;20091;-66
2021/04/17 02:26:09;;;;;;;7.95;5.32;;;;;;;-139.48;100.00;61774.03;5021201;28;20052;-66
2021/04/17 02:28:53;;;;;;;7.53;5.05;;;;;;;-139.48;100.00;61774.03;5020858;28;20528;-65
2021/04/17 02:31:37;;;;;;;9.65;5.20;;;;;;;-139.48;100.00;61774.03;5007406;28;20060;-65
2021/04/17 02:34:21;;;;;;;7.82;5.20;;;;;;;-139.48;100.00;61774.03;5035718;28;20048;-65
2021/04/17 02:37:06;;;;;;;6.93;5.00;;;;;;;-139.48;100.00;61774.03;5007171;28;20067;-65
2021/04/17 02:39:50;;;;;;;6.50;4.50;;;;;;;-139.48;100.00;61774.03;5035798;28;20094;-65
2021/04/17 02:42:33;;;;;;;6.22;4.90;;;;;;;-139.48;100.00;61774.03;5020537;28;20111;-65
2021/04/17 02:45:17;;;;;;;7.68;5.22;;;;;;;-139.48;100.00;61774.03;5021149;28;20144;-65
2021/04/17 02:48:01;;;;;;;6.78;5.13;;;;;;;-139.48;100.00;61774.03;5035684;28;20052;-65
2021/04/17 02:50:45;;;;;;;6.70;5.05;;;;;;;-139.48;100.00;61774.03;5020782;28;20087;-64
2021/04/17 02:53:29;;;;;;;8.18;5.22;;;;;;;-139.48;100.00;61774.03;5020723;28;20417;-65
2021/04/17 02:56:13;;;;;;;7.45;5.38;;;;;;;-139.48;100.00;61774.03;5035504;28;20526;-64
2021/04/17 02:58:57;;;;;;;7.50;5.20;;;;;;;-139.48;100.00;61774.03;5035638;28;20048;-65
2021/04/17 03:01:42;;;;;;;7.22;5.28;;;;;;;-139.48;100.00;61774.03;5035386;28;20088;-65
2021/04/17 03:04:25;;;;;;;7.55;5.03;;;;;;;-139.48;100.00;61774.03;5020235;28;20072;-66
2021/04/17 03:07:09;;;;;;;6.85;5.38;;;;;;;-139.48;100.00;61774.03;5035474;28;20051;-67
2021/04/17 03:09:53;;;;;;;8.38;5.40;;;;;;;-139.48;100.00;61774.03;5035401;28;20111;-66
2021/04/17 03:12:37;;;;;;;8.63;5.97;;;;;;;-139.48;100.00;61774.03;5034890;28;20142;-66
2021/04/17 03:15:21;;;;;;;6.65;5.47;;;;;;;-139.48;100.00;61774.03;5035204;28;20048;-67
2021/04/17 03:18:05;;;;;;;7.40;5.70;;;;;;;-139.48;100.00;61774.03;5035271;28;20167;-66
2021/04/17 03:20:49;;;;;;;7.60;5.70;;;;;;;-139.48;100.00;61774.03;5020063;28;20115;-67
2021/04/17 03:23:34;;;;;;;8.25;5.20;;;;;;;-139.48;100.00;61774.03;5006350;28;20073;-66
2021/04/17 03:26:17;;;;;;;9.52;5.93;;;;;;;-139.48;100.00;61774.03;5034737;28;20129;-66
2021/04/17 03:29:02;;;;;;;7.15;5.63;;;;;;;-139.48;100.00;61774.03;5020019;28;20128;-66
2021/04/17 03:31:46;;;;;;;7.40;5.35;;;;;;;-139.48;100.00;61774.03;5019587;28;20095;-66
2021/04/17 03:34:31;;;;;;;7.93;5.53;;;;;;;-139.48;100.00;61774.03;5006161;28;20501;-66
2021/04/17 03:37:15;;;;;;;9.23;5.75;;;;;;;-139.48;100.00;61774.03;5019954;28;20484;-66
2021/04/17 03:39:59;;;;;;;8.88;5.50;;;;;;;-139.48;100.00;61774.03;5006137;28;20086;-67
2021/04/17 03:42:43;;;;;;;8.65;5.80;;;;;;;-139.48;100.00;61774.03;5019432;28;20051;-66
2021/04/17 03:45:29;;;;;;;7.72;5.82;;;;;;;-139.48;100.00;61774.03;5005578;28;20487;-66
2021/04/17 03:48:12;;;;;;;6.85;5.20;;;;;;;-139.48;100.00;61774.03;5019826;28;20052;-66
2021/04/17 03:50:56;;;;;;;9.63;5.38;;;;;;;-139.48;100.00;61774.03;5019517;28;20421;-67
2021/04/17 03:53:40;;;;;;;8.23;5.60;;;;;;;-139.48;100.00;61774.03;5034560;28;20462;-65
2021/04/17 03:56:25;;;;;;;7.25;5.28;;;;;;;-139.48;100.00;61774.03;5019523;28;20080;-67
2021/04/17 03:59:08;;;;;;;7.78;5.60;;;;;;;-139.48;100.00;61774.03;5034266;28;20133;-66
2021/04/17 04:01:53;;;;;;;6.80;5.38;;;;;;;-139.48;100.00;61774.03;5019607;28;20091;-66
2021/04/17 04:04:37;;;;;;;7.53;5.20;;;;;;;-139.48;100.00;61774.03;5019122;28;20409;-67
2021/04/17 04:07:21;;;;;;;7.80;5.03;;;;;;;-139.48;100.00;61774.03;5019112;28;20128;-67
2021/04/17 04:10:06;;;;;;;7.07;5.10;;;;;;;-139.48;100.00;61774.03;5019022;28;20068;-66
2021/04/17 04:12:50;;;;;;;6.97;5.05;;;;;;;-139.48;100.00;61774.03;5034663;28;20374;-66
2021/04/17 04:15:34;;;;;;;9.77;5.32;;;;;;;-139.48;100.00;61774.03;5033926;28;20052;-66
2021/04/17 04:18:18;;;;;;;6.10;4.75;;;;;;;-139.48;100.00;61774.03;5019152;28;20055;-65
2021/04/17 04:21:02;;;;;;;6.30;4.97;;;;;;;-139.48;100.00;61774.03;5019066;28;20115;-67
2021/04/17 04:23:46;;;;;;;7.07;4.90;;;;;;;-139.48;100.00;61774.03;5034246;28;20470;-66
2021/04/17 04:26:29;;;;;;;6.65;5.00;;;;;;;-139.48;100.00;61774.03;5018721;28;20044;-66
2021/04/17 04:29:13;;;;;;;7.45;5.30;;;;;;;-139.48;100.00;61774.03;5033890;28;20048;-66
2021/04/17 04:31:57;;;;;;;8.45;4.55;;;;;;;-139.48;100.00;61774.03;5018723;28;20056;-65
2021/04/17 04:34:41;;;;;;;7.28;5.32;;;;;;;-139.48;100.00;61774.03;5033583;28;20076;-67
2021/04/17 04:37:25;;;;;;;5.47;4.78;;;;;;;-139.48;100.00;61774.03;5018368;28;20414;-66
2021/04/17 04:40:10;;;;;;;6.40;4.70;;;;;;;-139.48;100.00;61774.03;5018734;28;20056;-66
2021/04/17 04:42:54;;;;;;;7.25;5.50;;;;;;;-139.48;100.00;61774.03;5018512;28;20047;-66
2021/04/17 04:45:38;;;;;;;9.88;6.00;;;;;;;-139.48;100.00;61774.03;5005099;28;20191;-67
2021/04/17 04:48:22;;;;;;;9.85;5.40;;;;;;;-139.48;100.00;61774.03;5018415;28;20056;-65
2021/04/17 04:51:06;;;;;;;8.93;5.65;;;;;;;-139.48;100.00;61774.03;5033461;28;20430;-67
2021/04/17 04:53:51;;;;;;;7.50;5.30;;;;;;;-139.48;100.00;61774.03;5018577;28;20056;-67
2021/04/17 04:56:35;;;;;;;10.93;5.78;;;;;;;-139.48;100.00;61774.03;5004785;28;20052;-66
2021/04/17 04:59:19;;;;;;;7.20;5.63;;;;;;;-139.48;100.00;61774.03;5018535;28;20525;-67
2021/04/17 05:02:03;;;;;;;7.00;5.60;;;;;;;-139.48;100.00;61774.03;5033145;28;20095;-67
2021/04/17 05:04:48;;;;;;;6.72;5.28;;;;;;;-139.48;100.00;61774.03;5033447;28;20099;-67
2021/04/17 05:07:31;;;;;;;7.57;5.80;;;;;;;-139.48;100.00;61774.03;5033105;28;20418;-67
2021/04/17 05:10:15;;;;;;;7.93;5.75;;;;;;;-139.48;100.00;61774.03;5033191;28;20126;-67
2021/04/17 05:12:59;;;;;;;8.23;5.97;;;;;;;-139.48;100.00;61774.03;5004017;28;20057;-67
2021/04/17 05:15:43;;;;;;;;;;;;;;;-139.48;100.00;61774.03;5018766;28;20521;-67
2021/04/17 05:18:27;;;;;;;8.77;5.90;;;;;;;-139.48;100.00;61774.03;5018074;28;20397;-66
2021/04/17 05:21:11;;;;;;;10.45;5.95;;;;;;;-139.48;100.00;61774.03;5033183;28;20079;-66
2021/04/17 05:23:55;;;;;;;7.32;5.63;;;;;;;-139.48;100.00;61774.03;5033264;28;20056;-66
2021/04/17 05:26:39;;;;;;;8.38;6.10;;;;;;;-139.48;100.00;61774.03;5032946;28;20068;-66
2021/04/17 05:29:23;;;;;;;8.15;6.70;;;;;;;-139.48;100.00;61774.03;5018459;28;20103;-67
2021/04/17 05:32:08;;;;;;;11.32;6.50;;;;;;;-139.48;100.00;61774.03;5033111;28;20097;-66
2021/04/17 05:34:53;;;;;;;8.25;6.03;;;;;;;-139.48;100.00;61774.03;5017970;28;20080;-67
2021/04/17 05:37:37;;;;;;;11.27;6.28;;;;;;;-139.48;100.00;61774.03;5018122;28;20048;-65
2021/04/17 05:40:21;;;;;;;7.03;6.03;;;;;;;-139.48;100.00;61774.03;5018382;28;20039;-67
2021/04/17 05:43:05;;;;;;;7.93;6.40;;;;;;;-139.48;100.00;61774.03;5018066;28;20053;-66
2021/04/17 05:45:49;;;;;;;10.85;6.40;;;;;;;-139.48;100.00;61774.03;5032788;28;20052;-66
2021/04/17 05:48:33;;;;;;;9.07;6.50;;;;;;;-139.48;100.00;61774.03;5018843;28;20044;-67
2021/04/17 05:51:17;;;;;;;8.40;6.25;;;;;;;-139.48;100.00;61774.03;5021812;28;20098;-66
2021/04/17 05:54:01;;;;;;;11.90;7.93;;;;;;;-139.48;100.00;61774.03;5021752;28;20175;-66
2021/04/17 05:56:45;;;;;;;10.60;7.20;;;;;;;-139.48;100.00;61774.03;5021611;28;20595;-66
2021/04/17 05:59:29;;;;;;;8.00;6.25;;;;;;;-139.48;100.00;61774.03;5036445;28;20144;-66
2021/04/17 06:02:13;;;;;;;7.40;5.63;;;;;;;-139.48;100.00;61774.03;5036556;28;20052;-66
2021/04/17 06:04:57;;;;;;;7.95;5.90;;;;;;;-139.48;100.00;61774.03;5021636;28;20049;-66
2021/04/17 06:07:41;;;;;;;11.00;6.70;;;;;;;-139.48;100.00;61774.03;5021317;28;20052;-66
2021/04/17 06:10:25;;;;;;;8.85;6.05;;;;;;;-139.48;100.00;61774.03;5036444;28;20509;-67
2021/04/17 06:13:11;;;;;;;8.88;6.28;;;;;;;-139.48;100.00;61774.03;5037931;28;20056;-70
2021/04/17 06:15:56;;;;;;;9.48;6.57;;;;;;;-139.48;100.00;61774.03;5021736;28;20048;-70
2021/04/17 06:18:40;;;;;;;10.50;7.35;;;;;;;-139.48;100.00;61774.03;5036235;28;20137;-70
2021/04/17 06:21:24;;;;;;;10.45;7.30;;;;;;;-139.48;100.00;61774.03;5020936;28;20419;-69
2021/04/17 06:24:08;;;;;;;11.65;7.35;;;;;;;-139.48;100.00;61774.03;5036149;28;20125;-70
2021/04/17 06:26:52;;;;;;;9.80;6.70;;;;;;;-139.48;100.00;61774.03;5020955;28;20188;-70
2021/04/17 06:29:36;;;;;;;10.40;7.35;;;;;;;-139.48;100.00;61774.03;5021181;28;20052;-70
2021/04/17 06:32:20;;;;;;;11.45;8.13;;;;;;;-139.48;100.00;61774.03;5035731;28;20102;-70
2021/04/17 06:35:04;;;;;;;12.60;8.30;;;;;;;-139.48;100.00;61774.03;5035851;28;20525;-70
2021/04/17 06:37:48;;;;;;;12.18;8.48;;;;;;;-139.48;100.00;61774.03;5036251;28;20056;-69
2021/04/17 06:40:32;;;;;;;13.23;8.45;;;;;;;-139.48;100.00;61774.03;5020978;28;20132;-70
2021/04/17 06:43:16;;;;;;;13.48;8.55;;;;;;;-139.48;100.00;61774.03;5020595;28;20095;-69
2021/04/17 06:46:01;;;;;;;12.38;8.98;;;;;;;-139.48;100.00;61774.03;5020883;28;20044;-68
2021/04/17 06:48:45;;;;;;;11.23;8.95;;;;;;;-139.48;100.00;61774.03;5020788;28;20048;-70
2021/04/17 06:51:30;;;;;;;11.90;8.80;;;;;;;-139.48;100.00;61774.03;5020299;28;20048;-69
2021/04/17 06:54:21;;;;;;;10.88;8.32;;;;;;;-139.48;100.00;61774.03;5020441;28;20136;-69
2021/04/17 06:57:06;;;;;;;12.75;8.43;;;;;;;-139.48;100.00;61774.03;5020851;28;20056;-69
2021/04/17 06:59:51;;;;;;;12.90;8.45;;;;;;;-139.48;100.00;61774.03;5020195;28;20544;-69
2021/04/17 07:02:35;;;;;;;11.35;8.70;;;;;;;-139.48;100.00;61774.03;5020257;28;20056;-69
2021/04/17 07:05:19;;;;;;;11.15;8.40;;;;;;;-139.48;100.00;61774.03;5020626;28;20048;-70
2021/04/17 07:08:03;;;;;;;12.10;8.25;;;;;;;-139.48;100.00;61774.03;5035436;28;20052;-69
2021/04/17 07:10:48;;;;;;;11.30;8.00;;;;;;;-139.48;100.00;61774.03;5035130;28;20056;-69
2021/04/17 07:13:34;;;;;;;10.25;8.27;;;;;;;-139.48;100.00;61774.03;5020324;28;20048;-70
2021/04/17 07:16:17;;;;;;;10.57;7.80;;;;;;;-139.48;100.00;61774.03;5020176;28;20052;-70
2021/04/17 07:19:01;;;;;;;11.40;8.43;;;;;;;-139.48;100.00;61774.03;5035221;28;20056;-69
2021/04/17 07:21:45;;;;;;;9.90;7.72;;;;;;;-139.48;100.00;61774.03;5019926;28;20103;-70
2021/04/17 07:24:29;;;;;;;11.23;8.20;;;;;;;-139.48;100.00;61774.03;5034775;28;20044;-70
2021/04/17 07:27:44;;;;;;;12.18;9.10;;;;;;;-139.48;100.00;61774.03;5034679;28;20060;-69
2021/04/17 07:30:30;;;;;;;13.77;9.70;;;;;;;-139.48;100.00;61774.03;5019522;28;20057;-69
2021/04/17 07:33:14;;;;;;;11.57;8.55;;;;;;;-139.48;100.00;61774.03;5019350;28;20056;-69
2021/04/17 07:36:00;;;;;;;;;;;;;;;-139.48;100.00;61774.03;5034403;28;20107;-69
2021/04/17 07:38:45;;;;;;;16.42;9.88;;;;;;;-139.48;100.00;61774.03;5033957;28;20331;-70
2021/04/17 07:41:37;;;;;;;13.75;8.90;;;;;;;-139.48;100.00;61774.03;5033952;28;20115;-70
2021/04/17 07:44:29;;;;;;;14.85;9.32;;;;;;;-139.48;100.00;61774.03;5018882;28;20560;-69
2021/04/17 07:47:32;;;;;;;13.02;8.85;;;;;;;-139.48;100.00;61774.03;5018809;28;20091;-68
2021/04/17 07:50:18;;;;;;;11.50;9.18;;;;;;;-139.48;100.00;61774.03;5019006;28;20155;-69
2021/04/17 07:53:25;;;;;;;13.77;10.10;;;;;;;-139.48;100.00;61774.03;5018758;28;20628;-70
2021/04/17 07:56:27;;;;;;;16.92;9.82;;;;;;;-139.48;100.00;61774.03;5033752;28;20071;-69
2021/04/17 07:59:11;;;;;;;11.68;8.48;;;;;;;-139.48;100.00;61774.03;5018587;28;20411;-69
2021/04/17 08:01:57;;;;;;;10.98;8.27;;;;;;;-139.48;100.00;61774.03;5018423;28;20068;-68
2021/04/17 08:04:45;;;;;;;11.48;7.97;;;;;;;-139.48;100.00;61774.03;5004805;28;20052;-70
2021/04/17 08:07:30;;;;;;;11.73;8.30;;;;;;;-139.48;100.00;61774.03;5018388;28;20075;-70
2021/04/17 08:10:15;;;;;;;10.10;7.72;;;;;;;-139.48;100.00;61774.03;5018341;28;20056;-69
2021/04/17 08:13:00;;;;;;;11.70;8.88;;;;;;;-139.48;100.00;61774.03;5003734;28;20052;-70
2021/04/17 08:15:45;;;;;;;14.93;8.63;;;;;;;-139.48;100.00;61774.03;5018660;28;20099;-69
2021/04/17 08:18:30;;;;;;;10.18;8.20;;;;;;;-139.48;100.00;61774.03;5018488;28;20052;-69
2021/04/17 08:21:17;;;;;;;10.70;8.73;;;;;;;-139.48;100.00;61774.03;5018056;28;20148;-69
2021/04/17 08:24:02;;;;;;;11.00;8.90;;;;;;;-139.48;100.00;61774.03;5018358;28;20056;-69
2021/04/17 08:26:46;;;;;;;10.70;8.43;;;;;;;-139.48;100.00;61774.03;5018317;28;20041;-70
2021/04/17 08:29:53;;;;;;;12.63;8.23;;;;;;;-139.48;100.00;61774.03;5018154;28;20102;-70
2021/04/17 08:32:44;;;;;;;13.52;8.07;;;;;;;-139.48;100.00;61774.03;5032774;28;20418;-69
2021/04/17 08:35:37;;;;;;;10.65;8.40;;;;;;;-139.48;100.00;61774.03;5018284;28;20052;-70
2021/04/17 08:38:21;;;;;;;10.20;8.13;;;;;;;-139.48;100.00;61774.03;5033233;28;20051;-69
2021/04/17 08:41:07;;;;;;;10.07;8.23;;;;;;;-139.48;100.00;61774.03;5017959;28;20102;-69
2021/04/17 08:43:50;;;;;;;13.20;8.80;;;;;;;-139.48;100.00;61774.03;5018017;28;20053;-70
2021/04/17 08:46:41;;;;;;;11.90;8.07;;;;;;;-139.48;100.00;61774.03;5018018;28;20044;-69
2021/04/17 08:49:30;;;;;;;9.13;7.55;;;;;;;-139.48;100.00;61774.03;5017727;28;20465;-68
2021/04/17 08:52:24;;;;;;;11.75;7.95;;;;;;;-139.48;100.00;61774.03;5017841;28;20458;-70
2021/04/17 08:55:13;;;;;;;;;;;;;;;-139.48;100.00;61774.03;5018591;28;20138;-70
2021/04/17 08:58:14;;;;;;;11.13;7.70;;;;;;;-139.48;100.00;61774.03;5032792;28;19920;-70
2021/04/17 09:00:58;;;;;;;9.98;7.40;;;;;;;-139.48;100.00;61774.03;5003646;28;20091;-69
2021/04/17 09:03:46;;;;;;;15.73;8.30;;;;;;;-139.48;100.00;61774.03;5032730;28;20091;-69
2021/04/17 09:06:33;;;;;;;14.13;7.25;;;;;;;-139.48;100.00;61774.03;5017483;28;20052;-70
2021/04/17 09:09:18;;;;;;;9.93;7.28;;;;;;;-139.48;100.00;61774.03;5032379;28;20072;-69
2021/04/17 09:12:02;;;;;;;12.40;8.90;;;;;;;-139.48;100.00;61774.03;5032524;28;20064;-70
2021/04/17 09:14:56;;;;;;;9.80;7.63;;;;;;;-139.48;100.00;61774.03;5032509;28;20534;-70
2021/04/17 09:17:42;;;;;;;14.07;7.82;;;;;;;-139.48;100.00;61774.03;5017429;28;20128;-70
2021/04/17 09:20:33;;;;;;;10.27;8.05;;;;;;;-139.48;100.00;61774.03;5017697;28;20052;-70
2021/04/17 09:23:44;;;;;;;13.48;8.38;;;;;;;-139.48;100.00;61774.03;5034440;28;20136;-69
2021/04/17 09:26:33;;;;;;;9.60;7.07;;;;;;;-139.48;100.00;61774.03;5036615;28;20118;-70
2021/04/17 09:29:17;;;;;;;13.15;7.90;;;;;;;-139.48;100.00;61774.03;5036591;28;20049;-70
2021/04/17 09:32:04;;;;;;;10.93;8.15;;;;;;;-139.48;100.00;61774.03;5036407;28;20126;-70
2021/04/17 09:34:48;;;;;;;11.90;7.57;;;;;;;-139.48;100.00;61774.03;5022216;28;20056;-68
2021/04/17 09:37:32;;;;;;;10.73;6.72;;;;;;;-139.48;100.00;61774.03;5022108;28;20052;-68
2021/04/17 09:40:16;;;;;;;9.35;6.30;;;;;;;-139.48;100.00;61774.03;5036753;28;20528;-68
2021/04/17 09:43:01;;;;;;;8.63;5.85;;;;;;;-139.48;100.00;61774.03;5021621;28;20457;-67
2021/04/17 09:45:46;;;;;;;9.88;7.03;;;;;;;-139.48;100.00;61774.03;5037222;28;20452;-67
2021/04/17 09:48:41;;;;;;;19.02;7.30;;;;;;;-139.48;100.00;61774.03;5036903;28;20068;-67
2021/04/17 09:51:26;;;;;;;9.23;5.43;;;;;;;-139.48;100.00;61774.03;5021543;28;20052;-67
2021/04/17 09:54:11;;;;;;;10.13;5.63;;;;;;;-139.48;100.00;61774.03;5036458;28;20088;-65
2021/04/17 09:56:55;;;;;;;11.88;6.07;;;;;;;-139.48;100.00;61774.03;5021754;28;20461;-68
2021/04/17 09:59:50;;;;;;;8.00;5.65;;;;;;;-139.48;100.00;61774.03;5036436;28;20052;-66
2021/04/17 10:02:45;;;;;;;10.38;6.45;;;;;;;-139.48;100.00;61774.03;5021655;28;20126;-66
2021/04/17 10:05:34;;;;;;;8.50;6.88;;;;;;;-139.48;100.00;61774.03;5021572;28;20048;-66
2021/04/17 10:08:26;;;;;;;12.02;6.60;;;;;;;-139.48;100.00;61774.03;5036659;28;20057;-66
2021/04/17 10:11:21;;;;;;;8.75;6.47;;;;;;;-139.48;100.00;61774.03;5036257;28;20575;-66
2021/04/17 10:14:06;;;;;;;9.20;6.05;;;;;;;-139.48;100.00;61774.03;5036421;28;20552;-65
2021/04/17 10:16:50;;;;;;;7.97;6.63;;;;;;;-139.48;100.00;61774.03;5036242;28;20040;-66
2021/04/17 10:19:34;;;;;;;6.95;6.18;;;;;;;-139.48;100.00;61774.03;5007831;28;20106;-66
2021/04/17 10:22:19;;;;;;;7.20;6.10;;;;;;;-139.48;100.00;61774.03;5035995;28;20521;-65
2021/04/17 10:25:07;;;;;;;12.43;7.03;;;;;;;-139.48;100.00;61774.03;5036120;28;20091;-65
2021/04/17 10:27:51;;;;;;;11.93;6.60;;;;;;;-139.48;100.00;61774.03;5021520;28;20092;-68
2021/04/17 10:30:35;;;;;;;7.53;5.78;;;;;;;-139.48;100.00;61774.03;5021186;28;20087;-67
2021/04/17 10:33:21;;;;;;;7.30;5.40;;;;;;;-139.48;100.00;61774.03;5021172;28;20430;-67
2021/04/17 10:36:15;;;;;;;8.73;5.50;;;;;;;-139.48;100.00;61774.03;5035029;28;20049;-68
2021/04/17 10:39:09;;;;;;;7.03;5.22;;;;;;;-139.48;100.00;61774.03;5035711;28;20482;-66
2021/04/17 10:42:05;;;;;;;10.00;4.35;;;;;;;-139.48;100.00;61774.03;5035538;28;20119;-66
2021/04/17 10:44:54;;;;;;;7.78;4.45;;;;;;;-139.48;100.00;61774.03;5035528;28;20597;-67
2021/04/17 10:47:38;;;;;;;4.35;3.95;;;;;;;-139.48;100.00;61774.03;5035846;28;20091;-66
2021/04/17 10:50:24;;;;;;;6.03;4.75;;;;;;;-139.48;100.00;61774.03;5020442;28;20064;-67
2021/04/17 10:53:16;;;;;;;6.13;4.13;;;;;;;-139.48;100.00;61774.03;5020657;28;20458;-67
2021/04/17 10:56:11;;;;;;;5.22;3.88;;;;;;;-139.48;100.00;61774.03;5020619;28;20065;-68
2021/04/17 10:59:00;;;;;;;4.95;4.03;;;;;;;-139.48;100.00;61774.03;5035649;28;20048;-67
2021/04/17 11:01:44;;;;;;;5.88;4.53;;;;;;;-139.48;100.00;61774.03;5035166;28;20137;-67
2021/04/17 11:04:28;;;;;;;5.68;4.70;;;;;;;-139.48;100.00;61774.03;5006975;28;20048;-67
2021/04/17 11:07:12;;;;;;;5.07;4.40;;;;;;;-139.48;100.00;61774.03;5035130;28;20052;-67
2021/04/17 11:09:56;;;;;;;5.00;4.50;;;;;;;-139.48;100.00;61774.03;5035424;28;20057;-68
2021/04/17 11:12:39;;;;;;;;;;;;;;;-139.48;100.00;61774.03;5035378;28;20176;-68
2021/04/17 11:15:27;;;;;;;5.38;4.20;;;;;;;-139.48;100.00;61774.03;5035124;28;19931;-67
2021/04/17 11:18:19;;;;;;;7.97;4.72;;;;;;;-139.48;100.00;61774.03;5035037;28;20099;-67
2021/04/17 11:21:11;;;;;;;5.40;4.45;;;;;;;-139.48;100.00;61774.03;5034921;28;20095;-67
2021/04/17 11:23:57;;;;;;;6.82;4.32;;;;;;;-139.48;100.00;61774.03;5020166;28;20195;-67
2021/04/17 11:26:43;;;;;;;5.20;4.40;;;;;;;-139.48;100.00;61774.03;5020786;28;20402;-67
2021/04/17 11:29:27;;;;;;;5.35;4.38;;;;;;;-139.48;100.00;61774.03;5035067;28;20102;-69
2021/04/17 11:32:11;;;;;;;9.57;4.68;;;;;;;-139.48;100.00;61774.03;5019742;28;20128;-68
2021/04/17 11:34:55;;;;;;;5.40;3.92;;;;;;;-139.48;100.00;61774.03;5005845;28;20606;-68
2021/04/17 11:37:39;;;;;;;4.78;3.67;;;;;;;-139.48;100.00;61774.03;5034611;28;20072;-69
2021/04/17 11:40:24;;;;;;;4.97;4.38;;;;;;;-139.48;100.00;61774.03;5034770;28;20048;-69
2021/04/17 11:43:07;;;;;;;;;;;;;;;-139.48;100.00;61774.03;5020097;28;20052;-65
2021/04/17 11:45:52;;;;;;;5.05;4.00;;;;;;;-139.48;100.00;61774.03;5018787;28;19924;-67
2021/04/17 11:48:36;;;;;;;6.25;3.88;;;;;;;-139.48;100.00;61774.03;5034640;28;20056;-66
2021/04/17 11:51:20;;;;;;;4.07;3.38;;;;;;;-139.48;100.00;61774.03;5034224;28;20052;-67
2021/04/17 11:54:04;;;;;;;7.15;3.55;;;;;;;-139.48;100.00;61774.03;5019470;28;20529;-66
2021/04/17 11:56:48;;;;;;;3.97;3.22;;;;;;;-139.48;100.00;61774.03;5034233;28;20055;-66
2021/04/17 11:59:32;;;;;;;5.18;3.60;;;;;;;-139.48;100.00;61774.03;5034705;28;20540;-66
2021/04/17 12:02:17;;;;;;;4.38;3.40;;;;;;;-139.48;100.00;61774.03;5034036;28;20422;-67
2021/04/17 12:05:00;;;;;;;3.47;3.00;;;;;;;-139.48;100.00;61774.03;5034334;28;20103;-67
2021/04/17 12:07:45;;;;;;;5.60;3.33;;;;;;;-139.48;100.00;61774.03;5034266;28;20092;-66
2021/04/17 12:10:29;;;;;;;3.30;3.00;;;;;;;-139.48;100.00;61774.03;5019545;28;20072;-67
2021/04/17 12:13:13;;;;;;;6.70;3.30;;;;;;;-139.48;100.00;61774.03;5062446;22;20063;-69
2021/04/17 12:15:58;;;;;;;6.22;3.20;;;;;;;-139.48;100.00;61774.03;5044764;28;20529;-69
2021/04/17 12:18:42;;;;;;;5.95;3.38;;;;;;;-139.48;100.00;61774.03;5073778;28;20689;-68
2021/04/17 12:21:26;;;;;;;5.65;3.30;;;;;;;-139.48;100.00;61774.03;5059022;28;20051;-69
2021/04/17 12:24:10;;;;;;;5.60;3.78;;;;;;;-139.48;100.00;61774.03;5072798;28;20040;-69
2021/04/17 12:26:54;;;;;;;4.50;3.00;;;;;;;-139.48;100.00;61774.03;5058428;28;20534;-69
2021/04/17 12:29:38;;;;;;;9.18;3.25;;;;;;;-139.48;100.00;61774.03;5073813;28;20090;-69
2021/04/17 12:32:24;;;;;;;3.70;2.95;;;;;;;-139.48;100.00;61774.03;5073048;28;20094;-69
2021/04/17 12:35:11;;;;;;;3.22;2.90;;;;;;;-139.48;100.00;61774.03;5073437;28;20555;-68